Hikarimaru No.17 — JD2956 — position and weather

sailwx.info

Track history (hours):
 
Tides and Currents Weather Stations Pressure Air Temp Water Temp Dewpoint Dewpoint Depression Visibility Wind Speed Wind Dir Waves Ship Positions

Hikarimaru No.17

Last reported at 2015-Jul-30 07:09 UTC. Time now 2015-Aug-01 22:13 UTC.
Position N 34°16' E 134°59'.

Length 105 m; draft 6 m.

Type: Tanker. MMSI: 431000984.

Date/timePositionNaut miles runAvg speedWind from/ knotsBaromVisibWave heightAir tempDewpointWater temp
2015-Jul-30 07:09N 34°16' E 134°59'814.0
2015-Jul-30 06:33N 34°09' E 135°05'2 0.5
2015-Jul-30 02:33N 34°11' E 135°07'2 2.0
2015-Jul-30 01:29N 34°12' E 135°09'0 0.0
2015-Jul-30 00:29N 34°12' E 135°09'2 1.9
2015-Jul-29 23:33N 34°11' E 135°07'2 1.6
2015-Jul-29 22:31N 34°10' E 135°09'0 0.0
2015-Jul-29 21:28N 34°10' E 135°09'0 0.1
2015-Jul-29 20:31N 34°10' E 135°09'0 0.0
2015-Jul-29 19:31N 34°10' E 135°09'0 0.0
2015-Jul-29 18:28N 34°10' E 135°09'0 0.1
2015-Jul-29 17:28N 34°10' E 135°09'0 0.1
2015-Jul-29 16:31N 34°10' E 135°09'0 0.0
2015-Jul-29 15:31N 34°10' E 135°09'0 0.0
2015-Jul-29 14:31N 34°10' E 135°09'0 0.0
2015-Jul-29 13:28N 34°10' E 135°09'0 0.1
2015-Jul-29 12:31N 34°10' E 135°09'0 0.0
2015-Jul-29 11:31N 34°10' E 135°09'0 0.0
2015-Jul-29 10:31N 34°10' E 135°09'0 0.0
2015-Jul-29 09:31N 34°10' E 135°09'0 0.0
2015-Jul-29 08:31N 34°10' E 135°09'0 0.1
2015-Jul-29 07:31N 34°10' E 135°09'0 0.0
2015-Jul-29 06:31N 34°10' E 135°09'0 0.0
2015-Jul-29 05:31N 34°10' E 135°09'0 0.1
2015-Jul-29 04:33N 34°10' E 135°09'8 1.2
2015-Jul-28 21:33N 34°03' E 135°03'8 7.0
2015-Jul-28 20:25N 34°10' E 135°08'0 0.0
2015-Jul-28 19:31N 34°10' E 135°08'0 0.0
2015-Jul-28 18:31N 34°10' E 135°08'0 0.0
2015-Jul-28 17:31N 34°10' E 135°08'0 0.1
2015-Jul-28 16:31N 34°10' E 135°08'0 0.0
2015-Jul-28 15:31N 34°10' E 135°08'0 0.1
2015-Jul-28 14:31N 34°10' E 135°08'0 0.0
2015-Jul-28 13:31N 34°10' E 135°08'0 0.0
2015-Jul-28 12:31N 34°10' E 135°08'0 0.0
2015-Jul-28 11:31N 34°10' E 135°08'0 0.0
2015-Jul-28 10:28N 34°10' E 135°08'0 0.0
2015-Jul-28 09:31N 34°10' E 135°08'0 0.1
2015-Jul-28 08:31N 34°10' E 135°08'0 0.0
2015-Jul-28 07:33N 34°10' E 135°08'1111.3
2015-Jul-28 06:32N 34°18' E 134°59'1312.7
2015-Jul-28 05:33N 34°27' E 135°10'1313.2
2015-Jul-28 04:33N 34°33' E 135°23'1 0.3
2015-Jul-27 23:33N 34°33' E 135°22'3 3.0
2015-Jul-27 22:31N 34°32' E 135°18'0 0.0
2015-Jul-27 21:31N 34°32' E 135°18'0 0.0
2015-Jul-27 20:25N 34°32' E 135°18'0 0.0
2015-Jul-27 19:31N 34°32' E 135°18'0 0.0
2015-Jul-27 14:25N 34°32' E 135°18'0 0.0
2015-Jul-27 13:31N 34°32' E 135°18'0 0.0
2015-Jul-27 12:31N 34°32' E 135°18'0 0.0
2015-Jul-27 11:31N 34°32' E 135°18'0 0.0
2015-Jul-27 10:31N 34°32' E 135°18'0 0.0
2015-Jul-27 08:07N 34°32' E 135°18'0 0.0
2015-Jul-27 07:31N 34°32' E 135°18'0 0.0
2015-Jul-27 06:19N 34°32' E 135°18'0 0.0
2015-Jul-27 05:31N 34°32' E 135°18'0 0.0
2015-Jul-27 04:31N 34°32' E 135°18'0 0.1
2015-Jul-27 03:31N 34°32' E 135°18'0 0.0
2015-Jul-27 01:31N 34°32' E 135°18'0 0.0
2015-Jul-27 00:30N 34°32' E 135°18'0 0.0
2015-Jul-26 23:30N 34°32' E 135°18'0 0.0
2015-Jul-26 22:31N 34°32' E 135°18'0 0.0
2015-Jul-26 21:30N 34°32' E 135°18'0 0.0
2015-Jul-26 19:30N 34°32' E 135°18'0 0.0
2015-Jul-26 18:30N 34°32' E 135°18'0 0.0
2015-Jul-26 17:30N 34°32' E 135°18'0 0.0
2015-Jul-26 16:30N 34°32' E 135°18'0 0.1
2015-Jul-26 15:34N 34°32' E 135°18'1312.4
2015-Jul-26 14:30N 34°23' E 135°06'1111.2
2015-Jul-26 13:33N 34°14' E 135°00'9 1.4
2015-Jul-26 07:09N 34°07' E 135°07'1 1.3
2015-Jul-26 06:33N 34°08' E 135°07'0 0.0
2015-Jul-26 05:31N 34°08' E 135°07'0 0.0
2015-Jul-26 04:28N 34°08' E 135°07'5 5.8
2015-Jul-26 03:33N 34°04' E 135°03'224 9.7
2015-Jul-25 04:28N 34°55' E 139°28'9 9.8
2015-Jul-25 03:33N 35°00' E 139°37'1211.6
2015-Jul-25 02:33N 35°10' E 139°45'1212.4
2015-Jul-25 01:33N 35°22' E 139°42'1212.5
2015-Jul-25 00:33N 35°30' E 139°54'7 7.1
2015-Jul-24 23:33N 35°31' E 140°02'0 0.0
2015-Jul-24 22:33N 35°31' E 140°02'0 0.0
2015-Jul-24 21:33N 35°31' E 140°02'0 0.0
2015-Jul-24 20:33N 35°31' E 140°02'0 0.0
2015-Jul-24 19:24N 35°31' E 140°02'0 0.0
2015-Jul-24 18:30N 35°31' E 140°02'0 0.0
2015-Jul-24 17:30N 35°31' E 140°02'0 0.0
2015-Jul-24 16:30N 35°31' E 140°02'0 0.0
2015-Jul-24 15:30N 35°31' E 140°02'0 0.0
2015-Jul-24 14:33N 35°31' E 140°02'0 0.0
2015-Jul-24 13:33N 35°31' E 140°02'1 1.2
2015-Jul-24 12:33N 35°32' E 140°01'0 0.0
2015-Jul-24 11:33N 35°32' E 140°01'0 0.0
2015-Jul-24 10:33N 35°32' E 140°01'0 0.0
2015-Jul-24 09:29N 35°32' E 140°01'0 0.0
2015-Jul-24 08:29N 35°32' E 140°01'0 0.1
2015-Jul-24 07:29N 35°32' E 140°01'0 0.0
2015-Jul-24 06:29N 35°32' E 140°01'0 0.1
2015-Jul-24 05:29N 35°32' E 140°01'0 0.0
2015-Jul-24 04:32N 35°32' E 140°01'0 0.0
2015-Jul-24 03:26N 35°32' E 140°01'6 7.3
2015-Jul-24 02:33N 35°29' E 139°54'1211.7
2015-Jul-24 01:33N 35°20' E 139°45'1111.2
2015-Jul-24 00:33N 35°09' E 139°46'1313.3
2015-Jul-23 23:33N 34°60' E 139°35'23011.0
2015-Jul-23 02:32N 34°05' E 135°03'7 1.8
2015-Jul-22 22:33N 34°09' E 135°11'1 1.3
2015-Jul-22 21:33N 34°09' E 135°09'0 0.1
2015-Jul-22 20:33N 34°09' E 135°09'0 0.0
2015-Jul-22 19:33N 34°09' E 135°09'0 0.0
2015-Jul-22 18:33N 34°09' E 135°09'0 0.0
2015-Jul-22 17:33N 34°09' E 135°09'0 0.1
2015-Jul-22 16:30N 34°09' E 135°09'0 0.0
2015-Jul-22 15:33N 34°09' E 135°09'0 0.0
2015-Jul-22 14:33N 34°09' E 135°09'0 0.0
2015-Jul-22 13:33N 34°09' E 135°09'0 0.1
2015-Jul-22 12:33N 34°09' E 135°09'0 0.0
2015-Jul-22 11:33N 34°09' E 135°09'0 0.0
2015-Jul-22 10:33N 34°09' E 135°09'0 0.0
2015-Jul-22 09:33N 34°09' E 135°09'0 0.0
2015-Jul-22 08:33N 34°09' E 135°09'0 0.0
2015-Jul-22 07:30N 34°09' E 135°09'0 0.0
2015-Jul-22 06:30N 34°09' E 135°09'0 0.0
2015-Jul-22 05:33N 34°09' E 135°09'2 0.5
2015-Jul-22 00:33N 34°07' E 135°07'3 2.8
2015-Jul-21 23:33N 34°10' E 135°09'0 0.0
2015-Jul-21 22:33N 34°10' E 135°09'0 0.0
2015-Jul-21 21:33N 34°10' E 135°09'0 0.1
2015-Jul-21 20:33N 34°10' E 135°09'0 0.0
2015-Jul-21 19:33N 34°10' E 135°09'0 0.1
2015-Jul-21 18:33N 34°10' E 135°09'0 0.0
2015-Jul-21 17:33N 34°10' E 135°09'0 0.0
2015-Jul-21 16:34N 34°10' E 135°09'0 0.0
2015-Jul-21 15:33N 34°10' E 135°09'0 0.0
2015-Jul-21 14:33N 34°10' E 135°09'0 0.0
2015-Jul-21 13:33N 34°10' E 135°09'0 0.0
2015-Jul-21 12:33N 34°10' E 135°09'0 0.0
2015-Jul-21 11:33N 34°10' E 135°09'0 0.0
2015-Jul-21 10:34N 34°10' E 135°09'0 0.0
2015-Jul-21 09:33N 34°10' E 135°09'0 0.0
2015-Jul-21 08:33N 34°10' E 135°09'0 0.0
2015-Jul-21 07:33N 34°10' E 135°09'0 0.0
2015-Jul-21 06:33N 34°10' E 135°09'0 0.0
2015-Jul-21 05:34N 34°10' E 135°09'0 0.0
2015-Jul-21 04:33N 34°10' E 135°09'0 0.0
2015-Jul-21 03:33N 34°10' E 135°09'1 1.5
2015-Jul-21 02:33N 34°09' E 135°11'0 0.4
2015-Jul-21 01:33N 34°09' E 135°11'0 0.0
2015-Jul-21 00:27N 34°09' E 135°11'0 0.0
2015-Jul-20 23:33N 34°09' E 135°11'3 2.5
2015-Jul-20 22:32N 34°09' E 135°08'0 0.0
2015-Jul-20 21:29N 34°09' E 135°08'0 0.0
2015-Jul-20 20:29N 34°09' E 135°08'0 0.0
2015-Jul-20 19:32N 34°09' E 135°08'0 0.0
2015-Jul-20 18:32N 34°09' E 135°08'0 0.0
2015-Jul-20 17:32N 34°09' E 135°08'0 0.0
2015-Jul-20 16:32N 34°09' E 135°08'0 0.0
2015-Jul-20 15:32N 34°09' E 135°08'0 0.0
2015-Jul-20 14:32N 34°09' E 135°08'0 0.0
2015-Jul-20 13:29N 34°09' E 135°08'2 2.2
2015-Jul-20 12:33N 34°07' E 135°07'0 0.0
2015-Jul-20 08:26N 34°07' E 135°07'2 2.1
2015-Jul-20 07:33N 34°09' E 135°08'  
Track history (hours):
 
Tides and Currents Weather Stations Pressure Air Temp Water Temp Dewpoint Dewpoint Depression Visibility Wind Speed Wind Dir Waves Ship Positions

Hikarimaru No.17

Last reported at 2015-Jul-30 07:09 UTC. Time now 2015-Aug-01 22:13 UTC.
Position N 34°16' E 134°59'.

Length 105 m; draft 6 m.

Type: Tanker. MMSI: 431000984.

Date/timePositionNaut miles runAvg speedWind from/ knotsBaromVisibWave heightAir tempDewpointWater temp
2015-Jul-30 07:09N 34°16' E 134°59'814.0
2015-Jul-30 06:33N 34°09' E 135°05'2 0.5
2015-Jul-30 02:33N 34°11' E 135°07'2 2.0
2015-Jul-30 01:29N 34°12' E 135°09'0 0.0
2015-Jul-30 00:29N 34°12' E 135°09'2 1.9
2015-Jul-29 23:33N 34°11' E 135°07'2 1.6
2015-Jul-29 22:31N 34°10' E 135°09'0 0.0
2015-Jul-29 21:28N 34°10' E 135°09'0 0.1
2015-Jul-29 20:31N 34°10' E 135°09'0 0.0
2015-Jul-29 19:31N 34°10' E 135°09'0 0.0
2015-Jul-29 18:28N 34°10' E 135°09'0 0.1
2015-Jul-29 17:28N 34°10' E 135°09'0 0.1
2015-Jul-29 16:31N 34°10' E 135°09'0 0.0
2015-Jul-29 15:31N 34°10' E 135°09'0 0.0
2015-Jul-29 14:31N 34°10' E 135°09'0 0.0
2015-Jul-29 13:28N 34°10' E 135°09'0 0.1
2015-Jul-29 12:31N 34°10' E 135°09'0 0.0
2015-Jul-29 11:31N 34°10' E 135°09'0 0.0
2015-Jul-29 10:31N 34°10' E 135°09'0 0.0
2015-Jul-29 09:31N 34°10' E 135°09'0 0.0
2015-Jul-29 08:31N 34°10' E 135°09'0 0.1
2015-Jul-29 07:31N 34°10' E 135°09'0 0.0
2015-Jul-29 06:31N 34°10' E 135°09'0 0.0
2015-Jul-29 05:31N 34°10' E 135°09'0 0.1
2015-Jul-29 04:33N 34°10' E 135°09'8 1.2
2015-Jul-28 21:33N 34°03' E 135°03'8 7.0
2015-Jul-28 20:25N 34°10' E 135°08'0 0.0
2015-Jul-28 19:31N 34°10' E 135°08'0 0.0
2015-Jul-28 18:31N 34°10' E 135°08'0 0.0
2015-Jul-28 17:31N 34°10' E 135°08'0 0.1
2015-Jul-28 16:31N 34°10' E 135°08'0 0.0
2015-Jul-28 15:31N 34°10' E 135°08'0 0.1
2015-Jul-28 14:31N 34°10' E 135°08'0 0.0
2015-Jul-28 13:31N 34°10' E 135°08'0 0.0
2015-Jul-28 12:31N 34°10' E 135°08'0 0.0
2015-Jul-28 11:31N 34°10' E 135°08'0 0.0
2015-Jul-28 10:28N 34°10' E 135°08'0 0.0
2015-Jul-28 09:31N 34°10' E 135°08'0 0.1
2015-Jul-28 08:31N 34°10' E 135°08'0 0.0
2015-Jul-28 07:33N 34°10' E 135°08'1111.3
2015-Jul-28 06:32N 34°18' E 134°59'1312.7
2015-Jul-28 05:33N 34°27' E 135°10'1313.2
2015-Jul-28 04:33N 34°33' E 135°23'1 0.3
2015-Jul-27 23:33N 34°33' E 135°22'3 3.0
2015-Jul-27 22:31N 34°32' E 135°18'0 0.0
2015-Jul-27 21:31N 34°32' E 135°18'0 0.0
2015-Jul-27 20:25N 34°32' E 135°18'0 0.0
2015-Jul-27 19:31N 34°32' E 135°18'0 0.0
2015-Jul-27 14:25N 34°32' E 135°18'0 0.0
2015-Jul-27 13:31N 34°32' E 135°18'0 0.0
2015-Jul-27 12:31N 34°32' E 135°18'0 0.0
2015-Jul-27 11:31N 34°32' E 135°18'0 0.0
2015-Jul-27 10:31N 34°32' E 135°18'0 0.0
2015-Jul-27 08:07N 34°32' E 135°18'0 0.0
2015-Jul-27 07:31N 34°32' E 135°18'0 0.0
2015-Jul-27 06:19N 34°32' E 135°18'0 0.0
2015-Jul-27 05:31N 34°32' E 135°18'0 0.0
2015-Jul-27 04:31N 34°32' E 135°18'0 0.1
2015-Jul-27 03:31N 34°32' E 135°18'0 0.0
2015-Jul-27 01:31N 34°32' E 135°18'0 0.0
2015-Jul-27 00:30N 34°32' E 135°18'0 0.0
2015-Jul-26 23:30N 34°32' E 135°18'0 0.0
2015-Jul-26 22:31N 34°32' E 135°18'0 0.0
2015-Jul-26 21:30N 34°32' E 135°18'0 0.0
2015-Jul-26 19:30N 34°32' E 135°18'0 0.0
2015-Jul-26 18:30N 34°32' E 135°18'0 0.0
2015-Jul-26 17:30N 34°32' E 135°18'0 0.0
2015-Jul-26 16:30N 34°32' E 135°18'0 0.1
2015-Jul-26 15:34N 34°32' E 135°18'1312.4
2015-Jul-26 14:30N 34°23' E 135°06'1111.2
2015-Jul-26 13:33N 34°14' E 135°00'9 1.4
2015-Jul-26 07:09N 34°07' E 135°07'1 1.3
2015-Jul-26 06:33N 34°08' E 135°07'0 0.0
2015-Jul-26 05:31N 34°08' E 135°07'0 0.0
2015-Jul-26 04:28N 34°08' E 135°07'5 5.8
2015-Jul-26 03:33N 34°04' E 135°03'224 9.7
2015-Jul-25 04:28N 34°55' E 139°28'9 9.8
2015-Jul-25 03:33N 35°00' E 139°37'1211.6
2015-Jul-25 02:33N 35°10' E 139°45'1212.4
2015-Jul-25 01:33N 35°22' E 139°42'1212.5
2015-Jul-25 00:33N 35°30' E 139°54'7 7.1
2015-Jul-24 23:33N 35°31' E 140°02'0 0.0
2015-Jul-24 22:33N 35°31' E 140°02'0 0.0
2015-Jul-24 21:33N 35°31' E 140°02'0 0.0
2015-Jul-24 20:33N 35°31' E 140°02'0 0.0
2015-Jul-24 19:24N 35°31' E 140°02'0 0.0
2015-Jul-24 18:30N 35°31' E 140°02'0 0.0
2015-Jul-24 17:30N 35°31' E 140°02'0 0.0
2015-Jul-24 16:30N 35°31' E 140°02'0 0.0
2015-Jul-24 15:30N 35°31' E 140°02'0 0.0
2015-Jul-24 14:33N 35°31' E 140°02'0 0.0
2015-Jul-24 13:33N 35°31' E 140°02'1 1.2
2015-Jul-24 12:33N 35°32' E 140°01'0 0.0
2015-Jul-24 11:33N 35°32' E 140°01'0 0.0
2015-Jul-24 10:33N 35°32' E 140°01'0 0.0
2015-Jul-24 09:29N 35°32' E 140°01'0 0.0
2015-Jul-24 08:29N 35°32' E 140°01'0 0.1
2015-Jul-24 07:29N 35°32' E 140°01'0 0.0
2015-Jul-24 06:29N 35°32' E 140°01'0 0.1
2015-Jul-24 05:29N 35°32' E 140°01'0 0.0
2015-Jul-24 04:32N 35°32' E 140°01'0 0.0
2015-Jul-24 03:26N 35°32' E 140°01'6 7.3
2015-Jul-24 02:33N 35°29' E 139°54'1211.7
2015-Jul-24 01:33N 35°20' E 139°45'1111.2
2015-Jul-24 00:33N 35°09' E 139°46'1313.3
2015-Jul-23 23:33N 34°60' E 139°35'23011.0
2015-Jul-23 02:32N 34°05' E 135°03'7 1.8
2015-Jul-22 22:33N 34°09' E 135°11'1 1.3
2015-Jul-22 21:33N 34°09' E 135°09'0 0.1
2015-Jul-22 20:33N 34°09' E 135°09'0 0.0
2015-Jul-22 19:33N 34°09' E 135°09'0 0.0
2015-Jul-22 18:33N 34°09' E 135°09'0 0.0
2015-Jul-22 17:33N 34°09' E 135°09'0 0.1
2015-Jul-22 16:30N 34°09' E 135°09'0 0.0
2015-Jul-22 15:33N 34°09' E 135°09'0 0.0
2015-Jul-22 14:33N 34°09' E 135°09'0 0.0
2015-Jul-22 13:33N 34°09' E 135°09'0 0.1
2015-Jul-22 12:33N 34°09' E 135°09'0 0.0
2015-Jul-22 11:33N 34°09' E 135°09'0 0.0
2015-Jul-22 10:33N 34°09' E 135°09'0 0.0
2015-Jul-22 09:33N 34°09' E 135°09'0 0.0
2015-Jul-22 08:33N 34°09' E 135°09'0 0.0
2015-Jul-22 07:30N 34°09' E 135°09'0 0.0
2015-Jul-22 06:30N 34°09' E 135°09'0 0.0
2015-Jul-22 05:33N 34°09' E 135°09'2 0.5
2015-Jul-22 00:33N 34°07' E 135°07'3 2.8
2015-Jul-21 23:33N 34°10' E 135°09'0 0.0
2015-Jul-21 22:33N 34°10' E 135°09'0 0.0
2015-Jul-21 21:33N 34°10' E 135°09'0 0.1
2015-Jul-21 20:33N 34°10' E 135°09'0 0.0
2015-Jul-21 19:33N 34°10' E 135°09'0 0.1
2015-Jul-21 18:33N 34°10' E 135°09'0 0.0
2015-Jul-21 17:33N 34°10' E 135°09'0 0.0
2015-Jul-21 16:34N 34°10' E 135°09'0 0.0
2015-Jul-21 15:33N 34°10' E 135°09'0 0.0
2015-Jul-21 14:33N 34°10' E 135°09'0 0.0
2015-Jul-21 13:33N 34°10' E 135°09'0 0.0
2015-Jul-21 12:33N 34°10' E 135°09'0 0.0
2015-Jul-21 11:33N 34°10' E 135°09'0 0.0
2015-Jul-21 10:34N 34°10' E 135°09'0 0.0
2015-Jul-21 09:33N 34°10' E 135°09'0 0.0
2015-Jul-21 08:33N 34°10' E 135°09'0 0.0
2015-Jul-21 07:33N 34°10' E 135°09'0 0.0
2015-Jul-21 06:33N 34°10' E 135°09'0 0.0
2015-Jul-21 05:34N 34°10' E 135°09'0 0.0
2015-Jul-21 04:33N 34°10' E 135°09'0 0.0
2015-Jul-21 03:33N 34°10' E 135°09'1 1.5
2015-Jul-21 02:33N 34°09' E 135°11'0 0.4
2015-Jul-21 01:33N 34°09' E 135°11'0 0.0
2015-Jul-21 00:27N 34°09' E 135°11'0 0.0
2015-Jul-20 23:33N 34°09' E 135°11'3 2.5
2015-Jul-20 22:32N 34°09' E 135°08'0 0.0
2015-Jul-20 21:29N 34°09' E 135°08'0 0.0
2015-Jul-20 20:29N 34°09' E 135°08'0 0.0
2015-Jul-20 19:32N 34°09' E 135°08'0 0.0
2015-Jul-20 18:32N 34°09' E 135°08'0 0.0
2015-Jul-20 17:32N 34°09' E 135°08'0 0.0
2015-Jul-20 16:32N 34°09' E 135°08'0 0.0
2015-Jul-20 15:32N 34°09' E 135°08'0 0.0
2015-Jul-20 14:32N 34°09' E 135°08'0 0.0
2015-Jul-20 13:29N 34°09' E 135°08'2 2.2
2015-Jul-20 12:33N 34°07' E 135°07'0 0.0
2015-Jul-20 08:26N 34°07' E 135°07'2 2.1
2015-Jul-20 07:33N 34°09' E 135°08'  

Dump ship's entire track history